createdAt,value
2017-12-16T00:00:32.344Z,0.00
2017-12-16T00:01:32.337Z,0.00
2017-12-16T00:02:32.311Z,0.00
2017-12-16T00:03:32.298Z,0.00
2017-12-16T00:04:32.293Z,0.00
2017-12-16T00:05:32.290Z,0.00
2017-12-16T00:06:32.274Z,0.00
2017-12-16T00:07:32.266Z,0.00
2017-12-16T00:08:32.256Z,0.00
2017-12-16T00:09:32.243Z,0.00
2017-12-16T00:10:32.229Z,0.00
2017-12-16T00:11:32.748Z,0.00
2017-12-16T00:12:32.212Z,0.00
2017-12-16T00:13:32.204Z,0.00
2017-12-16T00:14:32.195Z,0.00
2017-12-16T00:15:32.181Z,0.00
2017-12-16T00:16:32.165Z,0.00
2017-12-16T00:17:32.755Z,0.00
2017-12-16T00:18:32.750Z,0.00
2017-12-16T00:19:32.142Z,0.00
2017-12-16T00:20:32.141Z,0.00
2017-12-16T00:21:32.761Z,0.00
2017-12-16T00:22:32.118Z,0.00
2017-12-16T00:23:32.749Z,0.00
2017-12-16T00:24:34.752Z,0.00
2017-12-16T00:25:32.079Z,0.00
2017-12-16T00:26:32.085Z,0.00
2017-12-16T00:27:32.747Z,0.00
2017-12-16T00:28:32.040Z,0.00
2017-12-16T00:29:32.044Z,0.00
2017-12-16T00:30:32.751Z,0.00
2017-12-16T00:31:32.018Z,0.00
2017-12-16T00:32:32.751Z,0.00
2017-12-16T00:33:32.018Z,0.00
2017-12-16T00:34:34.755Z,0.00
2017-12-16T00:35:32.747Z,0.00
2017-12-16T00:36:31.962Z,0.00
2017-12-16T00:37:31.964Z,0.00
2017-12-16T00:38:32.748Z,0.00
2017-12-16T00:39:31.938Z,0.00
2017-12-16T00:40:31.919Z,0.00
2017-12-16T00:41:31.912Z,0.00
2017-12-16T00:42:32.754Z,0.00
2017-12-16T00:43:31.905Z,0.00
2017-12-16T00:44:31.897Z,0.00
2017-12-16T00:45:32.757Z,0.00
2017-12-16T00:46:31.865Z,0.00
2017-12-16T00:47:31.851Z,0.00
2017-12-16T00:48:31.851Z,0.00
2017-12-16T00:49:31.836Z,0.00
2017-12-16T00:50:32.750Z,0.00
2017-12-16T00:51:31.813Z,0.00
2017-12-16T00:52:31.808Z,0.00
2017-12-16T00:53:31.798Z,0.00
2017-12-16T00:54:31.779Z,0.00
2017-12-16T00:55:32.768Z,0.00
2017-12-16T00:56:32.757Z,0.00
2017-12-16T00:57:31.764Z,0.00
2017-12-16T00:58:34.259Z,0.00
2017-12-16T00:59:31.724Z,0.00
2017-12-16T01:00:31.736Z,0.00
2017-12-16T01:01:31.714Z,0.00
2017-12-16T01:02:31.704Z,0.00
2017-12-16T01:03:31.701Z,0.00
2017-12-16T01:04:31.687Z,0.00
2017-12-16T01:05:31.676Z,0.00
2017-12-16T01:06:31.656Z,0.00
2017-12-16T01:07:31.654Z,0.00
2017-12-16T01:08:31.652Z,0.00
2017-12-16T01:09:31.636Z,0.00
2017-12-16T01:10:31.630Z,0.00
2017-12-16T01:11:31.618Z,0.00
2017-12-16T01:12:31.602Z,0.00
2017-12-16T01:13:40.236Z,0.00
2017-12-16T01:16:22.650Z,0.00
2017-12-16T01:17:14.967Z,0.00
2017-12-16T01:19:58.339Z,0.00
2017-12-16T01:20:58.304Z,0.00
2017-12-16T01:23:42.762Z,0.00
2017-12-16T01:24:42.642Z,0.00
2017-12-16T01:27:27.100Z,0.00
2017-12-16T01:28:27.003Z,0.00
2017-12-16T01:31:12.895Z,0.00
2017-12-16T01:32:12.856Z,0.00
2017-12-16T01:33:12.842Z,0.00
2017-12-16T01:34:12.833Z,0.00
2017-12-16T01:35:12.819Z,0.00
2017-12-16T01:36:12.810Z,0.00
2017-12-16T01:37:12.798Z,0.00
2017-12-16T01:38:12.788Z,0.00
2017-12-16T01:39:12.784Z,0.00
2017-12-16T01:40:12.771Z,0.00
2017-12-16T01:41:12.751Z,0.00
2017-12-16T01:42:12.755Z,0.00
2017-12-16T01:43:12.737Z,0.00
2017-12-16T01:44:12.731Z,0.00
2017-12-16T01:45:12.723Z,0.00
2017-12-16T01:46:12.714Z,0.00
2017-12-16T01:47:12.716Z,0.00
2017-12-16T01:48:12.693Z,0.00
2017-12-16T01:49:12.682Z,0.00
2017-12-16T01:50:12.671Z,0.00
2017-12-16T01:51:12.663Z,0.00
2017-12-16T01:52:13.446Z,0.00
2017-12-16T01:53:12.637Z,0.00
2017-12-16T01:54:12.629Z,0.00
2017-12-16T01:55:12.614Z,0.00
2017-12-16T01:56:12.607Z,0.00
2017-12-16T01:57:12.596Z,0.00
2017-12-16T01:58:13.437Z,0.00
2017-12-16T01:59:12.587Z,0.00
2017-12-16T02:00:12.572Z,0.00
2017-12-16T02:01:12.565Z,0.00
2017-12-16T02:02:12.551Z,0.00
2017-12-16T02:03:12.543Z,0.00
2017-12-16T02:04:12.532Z,0.00
2017-12-16T02:05:12.522Z,0.00
2017-12-16T02:06:12.514Z,0.00
2017-12-16T02:07:12.502Z,0.00
2017-12-16T02:08:12.493Z,0.00
2017-12-16T02:09:13.444Z,0.00
2017-12-16T02:10:13.442Z,0.00
2017-12-16T02:11:12.455Z,0.00
2017-12-16T02:12:13.445Z,0.00
2017-12-16T02:13:12.443Z,0.00
2017-12-16T02:14:12.428Z,0.00
2017-12-16T02:15:12.426Z,0.00
2017-12-16T02:16:12.944Z,0.00
2017-12-16T02:17:12.403Z,0.00
2017-12-16T02:18:12.392Z,0.00
2017-12-16T02:19:12.378Z,0.00
2017-12-16T02:20:12.373Z,0.00
2017-12-16T02:21:12.358Z,0.00
2017-12-16T02:22:14.944Z,0.00
2017-12-16T02:23:12.358Z,0.00
2017-12-16T02:24:12.331Z,0.00
2017-12-16T02:25:12.320Z,0.00
2017-12-16T02:26:12.314Z,0.00
2017-12-16T02:27:12.304Z,0.00
2017-12-16T02:28:12.290Z,0.00
2017-12-16T02:29:12.285Z,0.00
2017-12-16T02:30:12.273Z,0.00
2017-12-16T02:31:12.268Z,0.00
2017-12-16T02:32:12.252Z,0.00
2017-12-16T02:33:12.234Z,0.00
2017-12-16T02:34:14.950Z,0.00
2017-12-16T02:35:12.216Z,0.00
2017-12-16T02:36:12.210Z,0.00
2017-12-16T02:37:12.204Z,0.00
2017-12-16T02:38:12.189Z,0.00
2017-12-16T02:39:12.182Z,0.00
2017-12-16T02:40:12.956Z,0.00
2017-12-16T02:41:12.166Z,0.00
2017-12-16T02:42:12.152Z,0.00
2017-12-16T02:43:12.144Z,0.00
2017-12-16T02:44:12.134Z,0.00
2017-12-16T02:45:12.126Z,0.00
2017-12-16T02:46:12.110Z,0.00
2017-12-16T02:47:12.106Z,0.00
2017-12-16T02:48:12.092Z,0.00
2017-12-16T02:49:12.082Z,0.00
2017-12-16T02:50:12.071Z,0.00
2017-12-16T02:51:12.062Z,0.00
2017-12-16T02:52:12.960Z,0.00
2017-12-16T02:53:12.042Z,0.00
2017-12-16T02:54:12.035Z,0.00
2017-12-16T02:55:12.035Z,0.00
2017-12-16T02:56:12.013Z,0.00
2017-12-16T02:57:12.001Z,0.00
2017-12-16T02:58:12.960Z,0.00
2017-12-16T02:59:11.981Z,0.00
2017-12-16T03:00:11.973Z,0.00
2017-12-16T03:01:11.964Z,0.00
2017-12-16T03:02:11.953Z,0.00
2017-12-16T03:03:11.958Z,0.00
2017-12-16T03:04:12.460Z,0.00
2017-12-16T03:05:14.455Z,0.00
2017-12-16T03:06:11.910Z,0.00
2017-12-16T03:07:11.905Z,0.00
2017-12-16T03:08:11.890Z,0.00
2017-12-16T03:09:11.944Z,0.00
2017-12-16T03:10:12.463Z,0.00
2017-12-16T03:11:11.865Z,0.00
2017-12-16T03:12:11.858Z,0.00
2017-12-16T03:13:11.844Z,0.00
2017-12-16T03:14:11.836Z,0.00
2017-12-16T03:15:11.828Z,0.00
2017-12-16T03:16:11.811Z,0.00
2017-12-16T03:17:11.801Z,0.00
2017-12-16T03:18:11.797Z,0.00
2017-12-16T03:19:11.788Z,0.00
2017-12-16T03:20:11.777Z,0.00
2017-12-16T03:21:11.765Z,0.00
2017-12-16T03:22:14.464Z,0.00
2017-12-16T03:23:12.467Z,0.00
2017-12-16T03:24:11.737Z,0.00
2017-12-16T03:25:11.732Z,0.00
2017-12-16T03:26:11.714Z,0.00
2017-12-16T03:27:11.706Z,0.00
2017-12-16T03:28:12.467Z,0.00
2017-12-16T03:29:11.681Z,0.00
2017-12-16T03:30:11.663Z,0.00
2017-12-16T03:31:11.669Z,0.00
2017-12-16T03:32:11.649Z,0.00
2017-12-16T03:33:11.656Z,0.00
2017-12-16T03:34:11.634Z,0.00
2017-12-16T03:35:11.624Z,0.00
2017-12-16T03:36:11.636Z,0.00
2017-12-16T03:37:11.605Z,0.00
2017-12-16T03:38:11.595Z,0.00
2017-12-16T03:39:12.474Z,0.00
2017-12-16T03:40:11.580Z,0.00
2017-12-16T03:41:11.565Z,0.00
2017-12-16T03:42:11.557Z,0.00
2017-12-16T03:43:12.465Z,0.00
2017-12-16T03:44:11.536Z,0.00
2017-12-16T03:45:11.524Z,0.00
2017-12-16T03:46:11.518Z,0.00
2017-12-16T03:47:11.504Z,0.00
2017-12-16T03:48:11.494Z,0.00
2017-12-16T03:49:11.485Z,0.00
2017-12-16T03:50:11.474Z,0.00
2017-12-16T03:51:11.463Z,0.00
2017-12-16T03:52:11.460Z,0.00
2017-12-16T03:53:11.446Z,0.00
2017-12-16T03:54:11.978Z,0.00
2017-12-16T03:55:11.424Z,0.00
2017-12-16T03:56:11.409Z,0.00
2017-12-16T03:57:11.410Z,0.00
2017-12-16T03:58:11.416Z,0.00
2017-12-16T03:59:11.378Z,0.00
2017-12-16T04:00:11.374Z,0.00
2017-12-16T04:01:11.374Z,0.00
2017-12-16T04:02:11.345Z,0.00
2017-12-16T04:03:11.339Z,0.00
2017-12-16T04:04:11.335Z,0.00
2017-12-16T04:05:11.327Z,0.00
2017-12-16T04:06:11.972Z,0.00
2017-12-16T04:07:11.304Z,0.00
2017-12-16T04:08:11.984Z,0.00
2017-12-16T04:09:11.288Z,0.00
2017-12-16T04:10:11.275Z,0.00
2017-12-16T04:11:11.271Z,0.00
2017-12-16T04:12:11.252Z,0.00
2017-12-16T04:13:13.985Z,0.00
2017-12-16T04:14:11.241Z,0.00
2017-12-16T04:15:11.237Z,0.00
2017-12-16T04:16:11.213Z,0.00
2017-12-16T04:17:11.210Z,0.00
2017-12-16T04:18:11.191Z,0.00
2017-12-16T04:19:11.184Z,0.00
2017-12-16T04:20:11.174Z,0.00
2017-12-16T04:21:11.160Z,0.00
2017-12-16T04:22:11.153Z,0.00
2017-12-16T04:23:11.140Z,0.00
2017-12-16T04:24:13.994Z,0.00
2017-12-16T04:25:11.127Z,0.00
2017-12-16T04:26:11.116Z,0.00
2017-12-16T04:27:11.106Z,0.00
2017-12-16T04:28:11.134Z,0.00
2017-12-16T04:29:11.085Z,0.00
2017-12-16T04:30:11.080Z,0.00
2017-12-16T04:31:11.995Z,0.00
2017-12-16T04:32:11.051Z,0.00
2017-12-16T04:33:11.044Z,0.00
2017-12-16T04:34:11.037Z,0.00
2017-12-16T04:35:11.024Z,0.00
2017-12-16T04:36:11.013Z,0.00
2017-12-16T04:37:11.979Z,0.00
2017-12-16T04:38:11.984Z,0.00
2017-12-16T04:39:10.986Z,0.00
2017-12-16T04:40:10.972Z,0.00
2017-12-16T04:41:10.969Z,0.00
2017-12-16T04:42:10.957Z,0.00
2017-12-16T04:43:10.953Z,0.00
2017-12-16T04:44:10.937Z,0.00
2017-12-16T04:45:10.928Z,0.00
2017-12-16T04:46:10.921Z,0.00
2017-12-16T04:47:10.916Z,0.00
2017-12-16T04:48:10.899Z,0.00
2017-12-16T04:49:10.885Z,0.00
2017-12-16T04:50:10.879Z,0.00
2017-12-16T04:51:10.869Z,0.00
2017-12-16T04:52:11.492Z,0.00
2017-12-16T04:53:10.843Z,0.00
2017-12-16T04:54:10.835Z,0.00
2017-12-16T04:55:10.829Z,0.00
2017-12-16T04:56:10.823Z,0.00
2017-12-16T04:57:10.811Z,0.00
2017-12-16T04:58:11.494Z,0.00
2017-12-16T04:59:10.787Z,0.00
2017-12-16T05:00:10.778Z,0.00
2017-12-16T05:01:10.769Z,0.00
2017-12-16T05:02:10.758Z,0.00
2017-12-16T05:03:10.761Z,0.00
2017-12-16T05:04:11.499Z,0.00
2017-12-16T05:05:10.723Z,0.00
2017-12-16T05:06:10.715Z,0.00
2017-12-16T05:07:10.707Z,0.00
2017-12-16T05:08:10.697Z,0.00
2017-12-16T05:09:10.687Z,0.00
2017-12-16T05:10:10.676Z,0.00
2017-12-16T05:11:10.670Z,0.00
2017-12-16T05:12:10.658Z,0.00
2017-12-16T05:13:10.649Z,0.00
2017-12-16T05:14:10.651Z,0.00
2017-12-16T05:15:10.635Z,0.00
2017-12-16T05:16:10.621Z,0.00
2017-12-16T05:17:10.612Z,0.00
2017-12-16T05:18:10.626Z,0.00
2017-12-16T05:19:10.585Z,0.00
2017-12-16T05:20:10.577Z,0.00
2017-12-16T05:21:10.566Z,0.00
2017-12-16T05:22:11.500Z,0.00
2017-12-16T05:23:10.555Z,0.00
2017-12-16T05:24:10.538Z,0.00
2017-12-16T05:25:10.529Z,0.00
2017-12-16T05:26:10.527Z,0.00
2017-12-16T05:27:10.516Z,0.00
2017-12-16T05:28:10.498Z,0.00
2017-12-16T05:29:10.490Z,0.00
2017-12-16T05:30:10.485Z,0.00
2017-12-16T05:31:10.468Z,0.00
2017-12-16T05:32:10.460Z,0.00
2017-12-16T05:33:10.447Z,0.00
2017-12-16T05:34:11.001Z,0.00
2017-12-16T05:35:10.435Z,0.00
2017-12-16T05:36:10.425Z,0.00
2017-12-16T05:37:10.406Z,0.00
2017-12-16T05:38:10.406Z,0.00
2017-12-16T05:39:17.009Z,0.00
2017-12-16T05:40:10.386Z,0.00
2017-12-16T05:41:13.001Z,0.00
2017-12-16T05:42:10.359Z,0.00
2017-12-16T05:43:10.352Z,0.00
2017-12-16T05:44:10.343Z,0.00
2017-12-16T05:45:10.332Z,0.00
2017-12-16T05:46:11.006Z,0.00
2017-12-16T05:47:10.315Z,0.00
2017-12-16T05:48:10.298Z,0.00
2017-12-16T05:49:10.283Z,0.00
2017-12-16T05:50:10.281Z,0.00
2017-12-16T05:51:10.282Z,0.00
2017-12-16T05:52:11.013Z,0.00
2017-12-16T05:53:10.267Z,0.00
2017-12-16T05:54:10.253Z,0.00
2017-12-16T05:55:10.238Z,0.00
2017-12-16T05:56:10.230Z,0.00
2017-12-16T05:57:10.215Z,0.00
2017-12-16T05:58:13.069Z,0.00
2017-12-16T05:59:11.010Z,0.00
2017-12-16T06:00:10.183Z,0.00
2017-12-16T06:01:11.460Z,0.00
2017-12-16T06:02:10.170Z,0.00
2017-12-16T06:03:10.150Z,0.00
2017-12-16T06:04:11.017Z,0.00
2017-12-16T06:05:13.016Z,0.00
2017-12-16T06:06:11.035Z,0.00
2017-12-16T06:07:10.126Z,0.00
2017-12-16T06:08:10.115Z,0.00
2017-12-16T06:09:10.097Z,0.00
2017-12-16T06:10:11.017Z,0.00
2017-12-16T06:11:11.020Z,0.00
2017-12-16T06:12:10.067Z,0.00
2017-12-16T06:13:10.064Z,0.00
2017-12-16T06:14:10.053Z,0.00
2017-12-16T06:15:10.040Z,0.00
2017-12-16T06:16:10.028Z,0.00
2017-12-16T06:17:10.027Z,0.00
2017-12-16T06:18:10.011Z,0.00
2017-12-16T06:19:10.014Z,0.00
2017-12-16T06:20:09.990Z,0.00
2017-12-16T06:21:09.984Z,0.00
2017-12-16T06:22:09.971Z,0.00
2017-12-16T06:23:09.973Z,0.00
2017-12-16T06:24:09.954Z,0.00
2017-12-16T06:25:09.941Z,0.00
2017-12-16T06:26:09.941Z,0.00
2017-12-16T06:27:09.926Z,0.00
2017-12-16T06:28:09.905Z,0.00
2017-12-16T06:29:09.902Z,0.00
2017-12-16T06:30:09.890Z,0.00
2017-12-16T06:31:09.882Z,0.00
2017-12-16T06:32:10.527Z,0.00
2017-12-16T06:33:10.531Z,0.00
2017-12-16T06:34:09.873Z,0.00
2017-12-16T06:35:10.525Z,0.00
2017-12-16T06:36:09.840Z,0.00
2017-12-16T06:37:09.827Z,0.00
2017-12-16T06:38:09.819Z,0.00
2017-12-16T06:39:09.822Z,0.00
2017-12-16T06:40:09.796Z,0.00
2017-12-16T06:41:10.526Z,0.00
2017-12-16T06:42:09.775Z,0.00
2017-12-16T06:43:09.769Z,0.00
2017-12-16T06:44:09.761Z,0.00
2017-12-16T06:45:09.750Z,0.00
2017-12-16T06:46:09.732Z,0.00
2017-12-16T06:47:10.530Z,0.00
2017-12-16T06:48:09.722Z,0.00
2017-12-16T06:49:09.710Z,0.00
2017-12-16T06:50:09.706Z,0.00
2017-12-16T06:51:10.550Z,0.00
2017-12-16T06:52:09.685Z,0.00
2017-12-16T06:53:09.662Z,0.00
2017-12-16T06:54:09.669Z,0.00
2017-12-16T06:55:10.537Z,0.00
2017-12-16T06:56:10.537Z,0.00
2017-12-16T06:57:10.526Z,0.00
2017-12-16T06:58:09.619Z,0.00
2017-12-16T06:59:12.523Z,0.00
2017-12-16T07:00:09.595Z,0.00
2017-12-16T07:01:09.583Z,0.00
2017-12-16T07:02:09.581Z,0.00
2017-12-16T07:03:09.574Z,0.00
2017-12-16T07:04:09.568Z,0.00
2017-12-16T07:05:09.555Z,4.00
2017-12-16T07:06:09.547Z,4.00
2017-12-16T07:07:09.534Z,4.00
2017-12-16T07:08:09.524Z,0.00
2017-12-16T07:09:09.513Z,4.00
2017-12-16T07:10:09.498Z,4.00
2017-12-16T07:11:09.497Z,4.00
2017-12-16T07:12:10.033Z,4.00
2017-12-16T07:13:09.479Z,8.00
2017-12-16T07:14:09.459Z,8.00
2017-12-16T07:15:09.461Z,8.00
2017-12-16T07:16:09.444Z,8.00
2017-12-16T07:17:09.433Z,12.00
2017-12-16T07:18:09.427Z,8.00
2017-12-16T07:19:09.418Z,12.00
2017-12-16T07:20:09.405Z,20.00
2017-12-16T07:21:09.393Z,20.00
2017-12-16T07:22:09.386Z,20.00
2017-12-16T07:23:09.376Z,20.00
2017-12-16T07:24:09.370Z,24.00
2017-12-16T07:25:09.349Z,24.00
2017-12-16T07:26:09.348Z,20.00
2017-12-16T07:27:09.349Z,28.00
2017-12-16T07:28:09.327Z,36.00
2017-12-16T07:29:09.316Z,48.00
2017-12-16T07:30:09.318Z,48.00
2017-12-16T07:31:09.290Z,40.00
2017-12-16T07:32:09.295Z,36.00
2017-12-16T07:33:09.277Z,44.00
2017-12-16T07:34:09.312Z,36.00
2017-12-16T07:35:10.068Z,44.00
2017-12-16T07:36:09.247Z,56.00
2017-12-16T07:37:09.242Z,48.00
2017-12-16T07:38:09.230Z,48.00
2017-12-16T07:39:09.218Z,52.00
2017-12-16T07:40:09.227Z,60.00
2017-12-16T07:41:09.208Z,72.00
2017-12-16T07:42:09.195Z,72.00
2017-12-16T07:43:09.184Z,76.00
2017-12-16T07:44:09.182Z,80.00
2017-12-16T07:45:09.165Z,104.00
2017-12-16T07:46:09.157Z,120.00
2017-12-16T07:47:09.161Z,108.00
2017-12-16T07:48:10.047Z,92.00
2017-12-16T07:49:09.117Z,84.00
2017-12-16T07:50:09.112Z,76.00
2017-12-16T07:51:09.107Z,88.00
2017-12-16T07:52:09.092Z,100.00
2017-12-16T07:53:09.087Z,112.00
2017-12-16T07:54:10.047Z,108.00
2017-12-16T07:55:10.047Z,116.00
2017-12-16T07:56:10.064Z,144.00
2017-12-16T07:57:09.044Z,124.00
2017-12-16T07:58:09.042Z,128.00
2017-12-16T07:59:09.032Z,172.00
2017-12-16T08:00:09.554Z,196.00
2017-12-16T08:01:09.003Z,200.00
2017-12-16T08:02:09.007Z,188.00
2017-12-16T08:03:08.990Z,172.00
2017-12-16T08:04:08.977Z,160.00
2017-12-16T08:05:08.968Z,180.00
2017-12-16T08:06:08.961Z,180.00
2017-12-16T08:07:08.949Z,164.00
2017-12-16T08:08:08.940Z,144.00
2017-12-16T08:09:08.930Z,140.00
2017-12-16T08:10:08.914Z,128.00
2017-12-16T08:11:08.910Z,136.00
2017-12-16T08:12:09.544Z,128.00
2017-12-16T08:13:08.889Z,128.00
2017-12-16T08:14:08.880Z,136.00
2017-12-16T08:15:08.871Z,144.00
2017-12-16T08:16:08.856Z,152.00
2017-12-16T08:17:08.861Z,160.00
2017-12-16T08:18:08.847Z,168.00
2017-12-16T08:19:08.837Z,152.00
2017-12-16T08:20:08.818Z,144.00
2017-12-16T08:21:08.817Z,160.00
2017-12-16T08:22:08.807Z,196.00
2017-12-16T08:23:08.799Z,236.00
2017-12-16T08:24:09.557Z,260.00
2017-12-16T08:25:08.771Z,308.00
2017-12-16T08:26:09.567Z,308.00
2017-12-16T08:27:09.549Z,304.00
2017-12-16T08:28:08.746Z,312.00
2017-12-16T08:29:08.737Z,380.00
2017-12-16T08:30:09.558Z,404.00
2017-12-16T08:31:09.556Z,440.00
2017-12-16T08:32:08.708Z,584.00
2017-12-16T08:33:08.698Z,700.00
2017-12-16T08:34:08.695Z,784.00
2017-12-16T08:35:08.681Z,952.00
2017-12-16T08:36:09.560Z,1112.00
2017-12-16T08:37:09.561Z,1064.00
2017-12-16T08:38:08.650Z,800.00
2017-12-16T08:39:09.576Z,696.00
2017-12-16T08:40:08.635Z,548.00
2017-12-16T08:41:08.633Z,408.00
2017-12-16T08:42:08.617Z,380.00
2017-12-16T08:43:08.607Z,440.00
2017-12-16T08:44:08.598Z,476.00
2017-12-16T08:45:08.591Z,524.00
2017-12-16T08:46:08.573Z,664.00
2017-12-16T08:47:08.589Z,828.00
2017-12-16T08:48:08.555Z,768.00
2017-12-16T08:49:13.172Z,1112.00
2017-12-16T08:50:08.538Z,1032.00
2017-12-16T08:51:08.533Z,968.00
2017-12-16T08:52:08.517Z,984.00
2017-12-16T08:53:08.533Z,904.00
2017-12-16T08:54:08.494Z,784.00
2017-12-16T08:55:08.500Z,604.00
2017-12-16T08:56:08.484Z,512.00
2017-12-16T08:57:08.469Z,448.00
2017-12-16T08:58:08.465Z,412.00
2017-12-16T08:59:08.463Z,396.00
2017-12-16T09:00:08.439Z,416.00
2017-12-16T09:01:09.067Z,456.00
2017-12-16T09:02:09.069Z,628.00
2017-12-16T09:03:08.426Z,1112.00
2017-12-16T09:04:08.413Z,1672.00
2017-12-16T09:05:08.394Z,1556.00
2017-12-16T09:06:08.384Z,1356.00
2017-12-16T09:07:08.405Z,1080.00
2017-12-16T09:08:08.417Z,1096.00
2017-12-16T09:09:08.359Z,1096.00
2017-12-16T09:10:08.351Z,1192.00
2017-12-16T09:11:08.331Z,1164.00
2017-12-16T09:12:09.078Z,1252.00
2017-12-16T09:13:09.074Z,1376.00
2017-12-16T09:14:08.326Z,1424.00
2017-12-16T09:15:08.326Z,1404.00
2017-12-16T09:16:08.290Z,1512.00
2017-12-16T09:17:08.287Z,1688.00
2017-12-16T09:18:08.271Z,1836.00
2017-12-16T09:19:08.270Z,1832.00
2017-12-16T09:20:08.638Z,1816.00
2017-12-16T09:21:08.272Z,1664.00
2017-12-16T09:21:21.320Z,1576.00
2017-12-16T09:23:08.228Z,1536.00
2017-12-16T09:24:08.320Z,1520.00
2017-12-16T09:25:08.213Z,1612.00
2017-12-16T09:26:08.474Z,1672.00
2017-12-16T09:27:09.070Z,1536.00
2017-12-16T09:28:08.188Z,1336.00
2017-12-16T09:29:09.076Z,808.00
2017-12-16T09:30:08.708Z,892.00
2017-12-16T09:31:08.169Z,1192.00
2017-12-16T09:32:08.150Z,1576.00
2017-12-16T09:33:08.143Z,1532.00
2017-12-16T09:34:08.141Z,1792.00
2017-12-16T09:35:08.132Z,2408.00
2017-12-16T09:36:08.107Z,2368.00
2017-12-16T09:37:08.096Z,1900.00
2017-12-16T09:38:08.101Z,1576.00
2017-12-16T09:39:08.084Z,1528.00
2017-12-16T09:40:08.094Z,1264.00
2017-12-16T09:41:08.074Z,1084.00
2017-12-16T09:42:08.064Z,1024.00
2017-12-16T09:43:08.599Z,1192.00
2017-12-16T09:44:08.042Z,1368.00
2017-12-16T09:45:08.588Z,1528.00
2017-12-16T09:46:08.023Z,1796.00
2017-12-16T09:47:08.013Z,1588.00
2017-12-16T09:48:08.012Z,1632.00
2017-12-16T09:49:07.997Z,1936.00
2017-12-16T09:50:07.991Z,2376.00
2017-12-16T09:51:07.988Z,1988.00
2017-12-16T09:52:10.587Z,1792.00
2017-12-16T09:53:07.970Z,1904.00
2017-12-16T09:54:07.958Z,1984.00
2017-12-16T09:55:07.951Z,1864.00
2017-12-16T09:56:07.956Z,1688.00
2017-12-16T09:57:18.822Z,1460.00
2017-12-16T10:00:31.039Z,1332.00
2017-12-16T10:03:34.492Z,1548.00
2017-12-16T10:06:37.835Z,1912.00
2017-12-16T10:07:37.759Z,1808.00
2017-12-16T10:10:22.205Z,1760.00
2017-12-16T10:11:22.088Z,1708.00
2017-12-16T10:14:07.050Z,1340.00
2017-12-16T10:15:05.456Z,1456.00
2017-12-16T10:17:49.876Z,1528.00
2017-12-16T10:18:50.316Z,1412.00
2017-12-16T10:21:40.751Z,1368.00
2017-12-16T10:22:34.164Z,1488.00
2017-12-16T10:25:18.544Z,2168.00
2017-12-16T10:26:18.510Z,2156.00
2017-12-16T10:29:01.904Z,1628.00
2017-12-16T10:30:01.927Z,1676.00
2017-12-16T10:32:46.262Z,1368.00
2017-12-16T10:33:46.628Z,1316.00
2017-12-16T10:36:30.592Z,1404.00
2017-12-16T10:37:30.562Z,1564.00
2017-12-16T10:40:13.940Z,1316.00
2017-12-16T10:41:13.916Z,1320.00
2017-12-16T10:42:13.915Z,1368.00
2017-12-16T10:43:20.934Z,1504.00
2017-12-16T10:44:16.823Z,1576.00
2017-12-16T10:45:17.335Z,1504.00
2017-12-16T10:46:42.392Z,1472.00
2017-12-16T10:47:29.244Z,1592.00
2017-12-16T10:48:29.203Z,1724.00
2017-12-16T10:49:29.990Z,1936.00
2017-12-16T10:50:29.208Z,2364.00
2017-12-16T10:51:29.180Z,2524.00
2017-12-16T10:52:29.159Z,2232.00
2017-12-16T10:53:29.984Z,1972.00
2017-12-16T10:54:29.151Z,1932.00
2017-12-16T10:55:29.143Z,2044.00
2017-12-16T10:56:29.139Z,1852.00
2017-12-16T10:57:29.128Z,1560.00
2017-12-16T10:58:29.118Z,1548.00
2017-12-16T10:59:29.107Z,1736.00
2017-12-16T11:00:29.099Z,1956.00
2017-12-16T11:01:29.092Z,2040.00
2017-12-16T11:02:29.083Z,2572.00
2017-12-16T11:03:29.071Z,3168.00
2017-12-16T11:04:29.068Z,2720.00
2017-12-16T11:05:29.062Z,2380.00
2017-12-16T11:06:29.046Z,2172.00
2017-12-16T11:07:29.036Z,2460.00
2017-12-16T11:08:29.030Z,2088.00
2017-12-16T11:09:31.997Z,1676.00
2017-12-16T11:10:29.022Z,1660.00
2017-12-16T11:11:29.996Z,1708.00
2017-12-16T11:12:28.996Z,1980.00
2017-12-16T11:13:28.986Z,2568.00
2017-12-16T11:14:29.550Z,2892.00
2017-12-16T11:15:28.978Z,3248.00
2017-12-16T11:16:28.978Z,3468.00
2017-12-16T11:17:28.961Z,3440.00
2017-12-16T11:18:28.953Z,3364.00
2017-12-16T11:19:28.942Z,3300.00
2017-12-16T11:20:28.926Z,3148.00
2017-12-16T11:21:28.923Z,2864.00
2017-12-16T11:22:28.917Z,2824.00
2017-12-16T11:23:28.907Z,3004.00
2017-12-16T11:24:29.509Z,2860.00
2017-12-16T11:25:28.892Z,2420.00
2017-12-16T11:26:28.892Z,2156.00
2017-12-16T11:27:28.884Z,2216.00
2017-12-16T11:28:28.875Z,2128.00
2017-12-16T11:29:28.863Z,1920.00
2017-12-16T11:30:28.859Z,1600.00
2017-12-16T11:31:29.507Z,1164.00
2017-12-16T11:32:28.842Z,1044.00
2017-12-16T11:33:29.510Z,1272.00
2017-12-16T11:34:28.813Z,1784.00
2017-12-16T11:35:28.819Z,2052.00
2017-12-16T11:36:28.812Z,2292.00
2017-12-16T11:37:28.829Z,2440.00
2017-12-16T11:38:28.793Z,2520.00
2017-12-16T11:39:28.784Z,2456.00
2017-12-16T11:40:28.778Z,2408.00
2017-12-16T11:41:28.765Z,2332.00
2017-12-16T11:42:28.771Z,2232.00
2017-12-16T11:43:28.748Z,2108.00
2017-12-16T11:44:29.515Z,1940.00
2017-12-16T11:45:29.510Z,2008.00
2017-12-16T11:46:28.732Z,2280.00
2017-12-16T11:47:28.711Z,2580.00
2017-12-16T11:48:28.703Z,2720.00
2017-12-16T11:49:29.511Z,2816.00
2017-12-16T11:50:28.942Z,2888.00
2017-12-16T11:51:28.687Z,2900.00
2017-12-16T11:52:28.688Z,2992.00
2017-12-16T11:53:28.676Z,2892.00
2017-12-16T11:54:28.662Z,2548.00
2017-12-16T11:55:28.672Z,2564.00
2017-12-16T11:56:28.647Z,2420.00
2017-12-16T11:57:28.643Z,2276.00
2017-12-16T11:58:28.972Z,1792.00
2017-12-16T11:59:28.634Z,1456.00
2017-12-16T12:00:28.626Z,1600.00
2017-12-16T12:01:28.607Z,1696.00
2017-12-16T12:02:28.598Z,1872.00
2017-12-16T12:03:28.603Z,2376.00
2017-12-16T12:04:28.584Z,2580.00
2017-12-16T12:05:29.509Z,2668.00
2017-12-16T12:06:28.563Z,2508.00
2017-12-16T12:07:28.564Z,2376.00
2017-12-16T12:08:28.555Z,2324.00
2017-12-16T12:09:28.561Z,2304.00
2017-12-16T12:10:28.544Z,2364.00
2017-12-16T12:11:28.528Z,2388.00
2017-12-16T12:12:28.534Z,2356.00
2017-12-16T12:13:28.521Z,2364.00
2017-12-16T12:14:28.510Z,2356.00
2017-12-16T12:15:28.501Z,2292.00
2017-12-16T12:16:28.492Z,2168.00
2017-12-16T12:17:28.551Z,2040.00
2017-12-16T12:18:28.481Z,1952.00
2017-12-16T12:19:28.771Z,1968.00
2017-12-16T12:20:28.461Z,1976.00
2017-12-16T12:21:28.450Z,2084.00
2017-12-16T12:22:28.445Z,2208.00
2017-12-16T12:23:28.448Z,2560.00
2017-12-16T12:24:28.432Z,2528.00
2017-12-16T12:25:28.427Z,2200.00
2017-12-16T12:26:28.422Z,2152.00
2017-12-16T12:27:28.662Z,2296.00
2017-12-16T12:28:28.423Z,2200.00
2017-12-16T12:29:28.397Z,2024.00
2017-12-16T12:30:28.396Z,1888.00
2017-12-16T12:31:28.385Z,1672.00
2017-12-16T12:32:28.372Z,1900.00
2017-12-16T12:33:29.029Z,2156.00
2017-12-16T12:34:28.354Z,2112.00
2017-12-16T12:35:29.034Z,1920.00
2017-12-16T12:36:28.339Z,1848.00
2017-12-16T12:37:28.332Z,1872.00
2017-12-16T12:38:31.023Z,2012.00
2017-12-16T12:39:29.042Z,2128.00
2017-12-16T12:40:28.300Z,1672.00
2017-12-16T12:41:28.300Z,1476.00
2017-12-16T12:42:28.294Z,1612.00
2017-12-16T12:43:28.276Z,1348.00
2017-12-16T12:44:28.278Z,1132.00
2017-12-16T12:45:28.262Z,1116.00
2017-12-16T12:46:28.254Z,1256.00
2017-12-16T12:47:28.252Z,1464.00
2017-12-16T12:48:28.253Z,1776.00
2017-12-16T12:49:28.242Z,2004.00
2017-12-16T12:50:28.235Z,2340.00
2017-12-16T12:51:28.219Z,2900.00
2017-12-16T12:52:28.211Z,3360.00
2017-12-16T12:53:28.226Z,3096.00
2017-12-16T12:54:28.202Z,2796.00
2017-12-16T12:55:28.187Z,2704.00
2017-12-16T12:56:28.183Z,2516.00
2017-12-16T12:57:29.036Z,2300.00
2017-12-16T12:58:28.169Z,1924.00
2017-12-16T12:59:28.153Z,1680.00
2017-12-16T13:00:28.157Z,1760.00
2017-12-16T13:01:28.142Z,2072.00
2017-12-16T13:02:28.137Z,1320.00
2017-12-16T13:03:28.126Z,1312.00
2017-12-16T13:04:29.042Z,1080.00
2017-12-16T13:05:28.117Z,1020.00
2017-12-16T13:06:28.099Z,1184.00
2017-12-16T13:07:29.043Z,1168.00
2017-12-16T13:08:28.088Z,1408.00
2017-12-16T13:09:28.071Z,1676.00
2017-12-16T13:10:28.069Z,1688.00
2017-12-16T13:11:28.058Z,1620.00
2017-12-16T13:12:28.053Z,1672.00
2017-12-16T13:13:28.045Z,1688.00
2017-12-16T13:14:28.045Z,1720.00
2017-12-16T13:15:28.030Z,1740.00
2017-12-16T13:16:28.019Z,1756.00
2017-12-16T13:17:28.014Z,1872.00
2017-12-16T13:18:28.545Z,2640.00
2017-12-16T13:19:27.999Z,3040.00